Time;durP1;ratioP1;P1;durP2;ratioP2;P2;SDS_P1;SDS_P2;PMS_P1;PMS_P2;Temp;Humidity;BMP_temperature;BMP_pressure;BME280_temperature;BME280_humidity;BME280_pressure;Samples;Min_cycle;Max_cycle;Signal;HPM_P1;HPM_P2
2022/02/12 00:00:10;;;;;;;16.60;9.33;;;;;;;-2.09;100.00;102637.25;678823;29;2033;-50
2022/02/12 00:00:34;;;;;;;16.48;9.48;;;;;;;-2.10;100.00;102633.81;679277;29;1376;-51
2022/02/12 00:00:56;;;;;;;17.52;9.55;;;;;;;-2.11;100.00;102637.16;680102;28;4528;-53
2022/02/12 00:01:17;;;;;;;16.80;9.48;;;;;;;-2.10;100.00;102640.63;682856;28;1222;-54
2022/02/12 00:01:37;;;;;;;17.13;10.25;;;;;;;-2.11;100.00;102629.47;680689;29;1269;-50
2022/02/12 00:01:58;;;;;;;17.33;9.83;;;;;;;-2.12;100.00;102632.81;680624;28;1420;-49
2022/02/12 00:02:18;;;;;;;14.60;9.25;;;;;;;-2.09;100.00;102633.06;681486;28;3647;-50
2022/02/12 00:02:39;;;;;;;14.77;9.47;;;;;;;-2.04;100.00;102633.41;678524;29;4452;-50
2022/02/12 00:03:00;;;;;;;15.75;9.50;;;;;;;-2.00;100.00;102632.88;678916;29;1592;-56
2022/02/12 00:03:20;;;;;;;16.93;9.13;;;;;;;-1.98;100.00;102638.09;680941;28;1229;-51
2022/02/12 00:03:41;;;;;;;16.35;9.35;;;;;;;-2.00;100.00;102634.53;683602;28;1064;-53
2022/02/12 00:04:01;;;;;;;15.27;9.23;;;;;;;-2.00;100.00;102632.88;680752;28;4538;-52
2022/02/12 00:04:21;;;;;;;17.10;9.02;;;;;;;-1.96;100.00;102639.13;682298;28;1678;-51
2022/02/12 00:04:42;;;;;;;17.77;9.13;;;;;;;-1.94;100.00;102633.38;683822;28;1382;-50
2022/02/12 00:05:03;;;;;;;15.38;8.85;;;;;;;-1.84;100.00;102634.06;684100;28;1486;-51
2022/02/12 00:05:25;;;;;;;17.90;9.20;;;;;;;-1.84;100.00;102634.97;682266;28;4123;-54
2022/02/12 00:05:45;;;;;;;14.60;9.07;;;;;;;-1.83;100.00;102634.16;682112;28;2480;-51
2022/02/12 00:06:05;;;;;;;14.50;9.53;;;;;;;-1.82;100.00;102630.84;682162;28;1770;-51
2022/02/12 00:06:26;;;;;;;15.47;9.30;;;;;;;-1.86;100.00;102631.38;681878;28;1275;-52
2022/02/12 00:06:46;;;;;;;17.37;9.23;;;;;;;-1.87;100.00;102629.56;682239;28;1229;-52
2022/02/12 00:07:06;;;;;;;14.03;8.87;;;;;;;-1.88;100.00;102638.94;681064;28;4269;-50
2022/02/12 00:07:27;;;;;;;17.00;9.30;;;;;;;-1.89;100.00;102636.28;681467;28;1352;-50
2022/02/12 00:07:47;;;;;;;16.23;9.50;;;;;;;-1.93;100.00;102626.56;681898;28;1153;-50
2022/02/12 00:08:08;;;;;;;16.58;9.57;;;;;;;-1.96;100.00;102631.44;684138;28;3291;-53
2022/02/12 00:08:28;;;;;;;17.83;9.48;;;;;;;-1.99;100.00;102628.66;684379;28;3810;-52
2022/02/12 00:08:49;;;;;;;15.77;9.20;;;;;;;-2.00;100.00;102634.53;683585;28;1529;-51
2022/02/12 00:09:09;;;;;;;15.45;9.05;;;;;;;-1.98;100.00;102626.22;684398;28;1308;-50
2022/02/12 00:09:29;;;;;;;14.53;9.03;;;;;;;-1.96;100.00;102628.88;686205;28;1181;-52
2022/02/12 00:09:50;;;;;;;16.53;9.57;;;;;;;-1.93;100.00;102630.00;685233;28;4307;-52
2022/02/12 00:10:10;;;;;;;16.23;9.20;;;;;;;-1.91;100.00;102632.69;685928;28;907;-52
2022/02/12 00:10:31;;;;;;;15.80;9.20;;;;;;;-1.86;100.00;102626.25;685564;28;1579;-52
2022/02/12 00:10:51;;;;;;;16.02;9.20;;;;;;;-1.84;100.00;102619.59;684534;28;3846;-53
2022/02/12 00:11:12;;;;;;;13.10;9.30;;;;;;;-1.88;100.00;102630.38;683600;28;1875;-50
2022/02/12 00:11:32;;;;;;;15.43;9.30;;;;;;;-1.90;100.00;102624.22;684442;28;1259;-53
2022/02/12 00:11:53;;;;;;;15.95;8.90;;;;;;;-1.89;100.00;102631.16;684326;28;1191;-51
2022/02/12 00:12:13;;;;;;;16.57;9.17;;;;;;;-1.86;100.00;102628.81;683788;28;1538;-53
2022/02/12 00:12:34;;;;;;;15.37;9.07;;;;;;;-1.82;100.00;102629.94;684472;28;789;-53
2022/02/12 00:12:55;;;;;;;14.93;9.23;;;;;;;-1.80;100.00;102630.94;681668;28;4404;-54
2022/02/12 00:13:15;;;;;;;15.30;9.35;;;;;;;-1.81;100.00;102627.50;682955;28;1245;-52
2022/02/12 00:13:36;;;;;;;14.43;9.10;;;;;;;-1.83;100.00;102631.59;683189;28;929;-55
2022/02/12 00:13:56;;;;;;;16.10;8.57;;;;;;;-1.88;100.00;102628.69;681521;28;3566;-50
2022/02/12 00:14:16;;;;;;;14.63;8.60;;;;;;;-1.90;100.00;102624.22;682506;28;1411;-55
2022/02/12 00:14:37;;;;;;;14.13;8.32;;;;;;;-1.84;100.00;102629.84;680472;28;1459;-53
2022/02/12 00:14:57;;;;;;;14.43;8.97;;;;;;;-1.77;100.00;102621.84;678924;29;1018;-51
2022/02/12 00:15:18;;;;;;;16.80;9.00;;;;;;;-1.76;100.00;102628.75;679359;29;982;-51
2022/02/12 00:15:39;;;;;;;14.98;8.93;;;;;;;-1.83;100.00;102626.47;679794;29;1918;-51
2022/02/12 00:16:00;;;;;;;15.60;9.43;;;;;;;-1.91;100.00;102628.47;679228;29;4699;-53
2022/02/12 00:16:20;;;;;;;14.50;9.10;;;;;;;-1.95;100.00;102626.44;680273;28;1526;-51
2022/02/12 00:16:41;;;;;;;14.07;8.40;;;;;;;-1.96;100.00;102623.75;683030;28;3416;-51
2022/02/12 00:17:01;;;;;;;14.85;8.55;;;;;;;-1.91;100.00;102620.78;681138;28;1745;-51
2022/02/12 00:17:22;;;;;;;15.13;8.40;;;;;;;-1.87;100.00;102624.44;681720;28;1415;-52
2022/02/12 00:17:43;;;;;;;14.45;8.18;;;;;;;-1.84;100.00;102628.91;679324;29;974;-53
2022/02/12 00:18:04;;;;;;;14.70;8.43;;;;;;;-1.87;100.00;102629.56;679757;29;1158;-53
2022/02/12 00:18:24;;;;;;;16.33;9.00;;;;;;;-1.86;100.00;102627.94;678026;29;1400;-53
2022/02/12 00:18:45;;;;;;;13.77;8.65;;;;;;;-1.92;100.00;102625.78;677848;29;1365;-54
2022/02/12 00:19:05;;;;;;;13.60;8.40;;;;;;;-1.97;100.00;102630.53;678355;29;4604;-50
2022/02/12 00:19:26;;;;;;;13.77;8.57;;;;;;;-2.00;100.00;102625.19;679242;29;3343;-52
2022/02/12 00:19:46;;;;;;;14.47;9.13;;;;;;;-1.95;100.00;102620.41;681477;28;1441;-52
2022/02/12 00:20:07;;;;;;;13.35;9.00;;;;;;;-1.91;100.00;102624.97;680905;28;1671;-51
2022/02/12 00:20:27;;;;;;;14.43;9.30;;;;;;;-1.88;100.00;102617.56;680894;28;2617;-50
2022/02/12 00:20:48;;;;;;;15.00;8.80;;;;;;;-1.87;100.00;102624.44;681394;28;2258;-50
2022/02/12 00:21:08;;;;;;;15.67;8.63;;;;;;;-1.88;100.00;102623.56;678928;28;3251;-51
2022/02/12 00:21:28;;;;;;;13.60;8.63;;;;;;;-1.86;100.00;102633.94;678892;28;2349;-51
2022/02/12 00:21:49;;;;;;;12.70;8.83;;;;;;;-1.86;100.00;102625.38;680968;28;4319;-51
2022/02/12 00:22:09;;;;;;;12.73;8.40;;;;;;;-1.91;100.00;102622.41;681936;28;4111;-51
2022/02/12 00:22:29;;;;;;;14.70;8.33;;;;;;;-1.90;100.00;102621.66;684169;28;1512;-51
2022/02/12 00:22:50;;;;;;;14.07;8.18;;;;;;;-1.88;100.00;102615.88;684672;28;2381;-52
2022/02/12 00:23:10;;;;;;;15.77;8.67;;;;;;;-1.81;100.00;102619.81;683785;28;1473;-53
2022/02/12 00:23:31;;;;;;;16.17;8.65;;;;;;;-1.78;100.00;102621.72;684352;28;1129;-51
2022/02/12 00:23:51;;;;;;;15.17;8.87;;;;;;;-1.82;100.00;102617.13;681213;28;1750;-53
2022/02/12 00:24:11;;;;;;;14.15;8.32;;;;;;;-1.84;100.00;102624.72;682946;28;1045;-51
2022/02/12 00:24:32;;;;;;;16.33;8.50;;;;;;;-1.83;100.00;102621.34;682168;28;757;-52
2022/02/12 00:24:52;;;;;;;15.65;8.30;;;;;;;-1.83;100.00;102621.34;681581;28;4454;-53
2022/02/12 00:25:12;;;;;;;13.53;8.13;;;;;;;-1.81;100.00;102622.38;681937;28;4160;-51
2022/02/12 00:25:33;;;;;;;14.60;8.20;;;;;;;-1.83;100.00;102616.22;680975;28;1724;-52
2022/02/12 00:25:54;;;;;;;14.70;8.60;;;;;;;-1.86;100.00;102623.69;684303;28;1520;-50
2022/02/12 00:26:16;;;;;;;15.15;8.60;;;;;;;-1.86;100.00;102620.22;685118;28;957;-50
2022/02/12 00:26:36;;;;;;;14.88;8.45;;;;;;;-1.87;100.00;102614.19;685214;28;1291;-52
2022/02/12 00:26:57;;;;;;;15.55;8.13;;;;;;;-1.82;100.00;102618.00;684553;28;1613;-51
2022/02/12 00:27:17;;;;;;;15.40;8.40;;;;;;;-1.81;100.00;102619.81;683969;28;1948;-52
2022/02/12 00:27:37;;;;;;;14.60;8.27;;;;;;;-1.78;100.00;102619.16;681372;28;1243;-52
2022/02/12 00:27:58;;;;;;;13.85;8.18;;;;;;;-1.71;100.00;102616.28;680125;28;4359;-53
2022/02/12 00:28:18;;;;;;;12.53;8.10;;;;;;;-1.62;100.00;102616.06;680855;28;2410;-54
2022/02/12 00:28:38;;;;;;;14.07;8.25;;;;;;;-1.56;100.00;102621.69;681287;28;1495;-52
2022/02/12 00:28:59;;;;;;;12.90;8.10;;;;;;;-1.59;100.00;102617.22;680459;28;1436;-52
2022/02/12 00:29:19;;;;;;;13.88;8.48;;;;;;;-1.62;100.00;102622.13;679476;29;1062;-53
2022/02/12 00:29:40;;;;;;;12.77;8.70;;;;;;;-1.69;100.00;102618.97;680666;28;1966;-52
2022/02/12 00:30:00;;;;;;;13.63;8.90;;;;;;;-1.80;100.00;102621.59;681146;28;1529;-51
2022/02/12 00:30:21;;;;;;;14.93;8.98;;;;;;;-1.86;100.00;102621.13;681008;29;1403;-55
2022/02/12 00:30:41;;;;;;;14.70;8.90;;;;;;;-1.94;100.00;102617.06;678593;29;3226;-55
2022/02/12 00:31:02;;;;;;;12.52;8.70;;;;;;;-1.97;100.00;102612.59;677571;29;4741;-53
2022/02/12 00:31:22;;;;;;;12.60;8.20;;;;;;;-1.96;100.00;102614.38;680536;28;2133;-51
2022/02/12 00:31:42;;;;;;;13.63;8.10;;;;;;;-1.95;100.00;102618.75;678541;29;1262;-51
2022/02/12 00:32:03;;;;;;;13.02;8.15;;;;;;;-1.95;100.00;102615.28;678468;29;906;-50
2022/02/12 00:32:24;;;;;;;13.48;8.27;;;;;;;-1.95;100.00;102617.84;678967;28;1014;-50
2022/02/12 00:32:44;;;;;;;15.20;8.70;;;;;;;-1.96;100.00;102621.19;682402;28;1330;-51
2022/02/12 00:33:08;;;;;;;14.83;8.47;;;;;;;-1.98;100.00;102618.53;682266;28;1074;-51
2022/02/12 00:33:28;;;;;;;13.63;8.38;;;;;;;-1.96;100.00;102622.06;683456;28;1985;-52
2022/02/12 00:33:49;;;;;;;15.25;8.90;;;;;;;-1.98;100.00;102625.28;683665;28;4555;-52
2022/02/12 00:34:09;;;;;;;17.20;9.07;;;;;;;-2.01;100.00;102622.50;684277;28;1433;-50
2022/02/12 00:34:30;;;;;;;15.13;9.30;;;;;;;-2.06;100.00;102622.16;685231;28;1015;-51
2022/02/12 00:34:50;;;;;;;15.43;9.37;;;;;;;-2.09;100.00;102622.81;685975;28;1056;-53
2022/02/12 00:35:11;;;;;;;16.00;8.98;;;;;;;-2.11;100.00;102620.88;685350;28;963;-50
2022/02/12 00:35:32;;;;;;;14.60;8.63;;;;;;;-2.15;100.00;102617.19;684540;28;1968;-53
2022/02/12 00:35:52;;;;;;;14.73;8.82;;;;;;;-2.19;100.00;102617.72;684090;28;939;-50
2022/02/12 00:36:12;;;;;;;14.73;8.95;;;;;;;-2.19;100.00;102619.38;683657;28;905;-52
2022/02/12 00:36:33;;;;;;;13.87;9.00;;;;;;;-2.24;100.00;102612.25;680707;28;3902;-51
2022/02/12 00:36:53;;;;;;;15.43;9.25;;;;;;;-2.27;100.00;102614.56;681329;28;4667;-51
2022/02/12 00:37:13;;;;;;;14.30;8.83;;;;;;;-2.23;100.00;102616.59;682549;28;1550;-55
2022/02/12 00:37:34;;;;;;;12.17;8.60;;;;;;;-2.17;100.00;102617.81;682356;28;1696;-50
2022/02/12 00:37:54;;;;;;;15.13;8.55;;;;;;;-2.17;100.00;102612.69;682685;28;1177;-52
2022/02/12 00:38:15;;;;;;;17.23;9.25;;;;;;;-2.16;100.00;102612.84;681274;28;1527;-54
2022/02/12 00:38:35;;;;;;;16.23;8.83;;;;;;;-2.14;100.00;102615.53;684791;28;1219;-51
2022/02/12 00:38:55;;;;;;;15.77;9.20;;;;;;;-2.13;100.00;102617.28;685261;28;1137;-52
2022/02/12 00:39:16;;;;;;;14.30;9.30;;;;;;;-2.12;100.00;102612.31;683852;28;4394;-50
2022/02/12 00:39:36;;;;;;;15.43;9.17;;;;;;;-2.17;100.00;102621.31;683543;28;3617;-51
2022/02/12 00:39:58;;;;;;;16.50;9.40;;;;;;;-2.25;100.00;102615.56;681281;28;5229;-53
2022/02/12 00:40:22;;;;;;;15.98;9.30;;;;;;;-2.24;100.00;102616.47;678420;29;1183;-55
2022/02/12 00:40:42;;;;;;;15.02;8.60;;;;;;;-2.20;100.00;102612.47;676851;29;2166;-51
2022/02/12 00:41:03;;;;;;;15.17;8.70;;;;;;;-2.16;100.00;102615.41;677692;29;1071;-52
2022/02/12 00:41:23;;;;;;;13.95;8.73;;;;;;;-2.14;100.00;102613.84;678007;29;956;-53
2022/02/12 00:41:44;;;;;;;15.67;8.93;;;;;;;-2.11;100.00;102613.19;678203;29;880;-54
2022/02/12 00:42:04;;;;;;;15.32;8.90;;;;;;;-2.13;100.00;102620.78;680924;28;3563;-53
2022/02/12 00:42:26;;;;;;;15.83;9.20;;;;;;;-2.15;100.00;102617.19;681532;28;3652;-51
2022/02/12 00:42:46;;;;;;;14.32;8.45;;;;;;;-2.15;100.00;102612.06;680748;28;1368;-51
2022/02/12 00:43:07;;;;;;;13.25;8.15;;;;;;;-2.11;100.00;102614.06;681853;28;4476;-51
2022/02/12 00:43:27;;;;;;;15.07;8.97;;;;;;;-2.13;100.00;102610.53;682785;28;1322;-52
2022/02/12 00:43:47;;;;;;;15.25;8.95;;;;;;;-2.16;100.00;102614.50;681829;28;1393;-50
2022/02/12 00:44:08;;;;;;;15.80;8.80;;;;;;;-2.18;100.00;102609.25;681569;28;893;-50
2022/02/12 00:44:28;;;;;;;16.40;8.80;;;;;;;-2.17;100.00;102613.63;684237;28;848;-52
2022/02/12 00:44:50;;;;;;;16.83;9.07;;;;;;;-2.19;100.00;102614.25;685370;28;3874;-52
2022/02/12 00:45:10;;;;;;;16.73;8.80;;;;;;;-2.21;100.00;102616.72;683185;28;3327;-53
2022/02/12 00:45:31;;;;;;;14.43;8.73;;;;;;;-2.24;100.00;102613.91;684320;28;1709;-53
2022/02/12 00:45:51;;;;;;;14.65;9.35;;;;;;;-2.29;100.00;102615.22;684452;28;4401;-51
2022/02/12 00:46:11;;;;;;;14.93;9.00;;;;;;;-2.31;100.00;102619.31;684211;28;1227;-51
2022/02/12 00:46:32;;;;;;;13.70;8.80;;;;;;;-2.33;100.00;102613.19;685191;28;1829;-52
2022/02/12 00:46:55;;;;;;;14.73;8.77;;;;;;;-2.33;100.00;102610.63;684178;28;927;-50
2022/02/12 00:47:16;;;;;;;14.20;9.00;;;;;;;-2.34;100.00;102613.94;684247;28;2456;-51
2022/02/12 00:47:42;;;;;;;16.70;9.10;;;;;;;-2.38;100.00;102612.81;682789;28;3145;-52
2022/02/12 00:48:03;;;;;;;14.85;8.45;;;;;;;-2.41;100.00;102616.03;684292;28;1526;-50
2022/02/12 00:48:24;;;;;;;15.07;8.82;;;;;;;-2.41;100.00;102618.59;685000;28;3540;-54
2022/02/12 00:48:45;;;;;;;14.48;9.13;;;;;;;-2.37;100.00;102617.16;686781;28;971;-50
2022/02/12 00:49:05;;;;;;;14.10;8.63;;;;;;;-2.37;100.00;102622.28;684835;28;4591;-51
2022/02/12 00:49:26;;;;;;;14.95;9.25;;;;;;;-2.38;100.00;102610.28;685082;28;915;-51
2022/02/12 00:49:50;;;;;;;15.03;9.00;;;;;;;-2.41;100.00;102617.69;685852;28;856;-53
2022/02/12 00:50:11;;;;;;;15.43;9.10;;;;;;;-2.40;100.00;102612.69;685039;28;1089;-53
2022/02/12 00:50:31;;;;;;;16.15;9.02;;;;;;;-2.41;100.00;102616.03;684964;28;4276;-52
2022/02/12 00:50:59;;;;;;;15.82;8.98;;;;;;;-2.42;100.00;102614.25;684239;28;3525;-50
2022/02/12 00:51:19;;;;;;;13.55;8.90;;;;;;;-2.46;100.00;102617.31;683976;28;1827;-50
2022/02/12 00:51:39;;;;;;;16.00;8.85;;;;;;;-2.46;100.00;102607.09;684534;28;1346;-52
2022/02/12 00:52:00;;;;;;;15.53;8.60;;;;;;;-2.44;100.00;102613.25;683753;28;4270;-53
2022/02/12 00:52:21;;;;;;;15.83;9.37;;;;;;;-2.46;100.00;102614.78;682667;28;3113;-53
2022/02/12 00:52:42;;;;;;;15.63;8.60;;;;;;;-2.48;100.00;102610.28;682956;28;2331;-53
2022/02/12 00:53:03;;;;;;;17.05;9.00;;;;;;;-2.47;100.00;102612.09;682199;28;3296;-51
2022/02/12 00:53:30;;;;;;;16.93;8.90;;;;;;;-2.44;100.00;102603.00;681105;28;2993;-55
2022/02/12 00:53:51;;;;;;;15.63;8.82;;;;;;;-2.41;100.00;102605.78;676917;29;1942;-53
2022/02/12 00:54:12;;;;;;;15.77;9.10;;;;;;;-2.38;100.00;102607.72;675990;29;3435;-57
2022/02/12 00:54:33;;;;;;;14.17;8.83;;;;;;;-2.31;100.00;102603.94;676338;29;3926;-52
2022/02/12 00:54:56;;;;;;;18.27;8.95;;;;;;;-2.31;100.00;102609.97;673234;29;4477;-52
2022/02/12 00:55:17;;;;;;;15.52;8.73;;;;;;;-2.32;100.00;102602.16;674575;29;1397;-51
2022/02/12 00:55:38;;;;;;;15.35;8.50;;;;;;;-2.29;100.00;102603.28;674636;29;1986;-50
2022/02/12 00:55:58;;;;;;;14.23;8.90;;;;;;;-2.27;100.00;102604.31;674845;29;1147;-52
2022/02/12 00:56:18;;;;;;;13.70;8.85;;;;;;;-2.27;100.00;102600.84;678087;28;1455;-50
2022/02/12 00:56:39;;;;;;;14.50;8.77;;;;;;;-2.30;100.00;102609.22;682651;28;1093;-51
2022/02/12 00:57:00;;;;;;;15.48;8.75;;;;;;;-2.31;100.00;102609.06;684807;28;1395;-53
2022/02/12 00:57:24;;;;;;;15.35;8.77;;;;;;;-2.28;100.00;102605.09;683688;28;3505;-51
2022/02/12 00:57:48;;;;;;;15.35;8.98;;;;;;;-2.28;100.00;102602.53;684131;28;4383;-54
2022/02/12 00:58:09;;;;;;;15.23;9.03;;;;;;;-2.27;100.00;102606.88;684168;28;1310;-49
2022/02/12 00:58:29;;;;;;;15.73;8.70;;;;;;;-2.28;100.00;102604.19;685092;28;1311;-51
2022/02/12 00:58:50;;;;;;;14.63;8.80;;;;;;;-2.31;100.00;102606.50;685497;28;917;-53
2022/02/12 00:59:10;;;;;;;13.27;8.50;;;;;;;-2.27;100.00;102600.84;684891;28;1163;-51
2022/02/12 00:59:31;;;;;;;15.55;9.32;;;;;;;-2.30;100.00;102601.53;686200;28;841;-50
2022/02/12 00:59:51;;;;;;;15.23;9.33;;;;;;;-2.22;100.00;102604.66;683968;28;1380;-51
2022/02/12 01:00:12;;;;;;;14.80;8.70;;;;;;;-2.14;100.00;102608.72;683414;28;3173;-50
2022/02/12 01:00:34;;;;;;;13.00;8.63;;;;;;;-2.11;100.00;102606.38;685249;28;1328;-50
2022/02/12 01:00:57;;;;;;;15.35;8.95;;;;;;;-2.15;100.00;102611.16;683598;28;4654;-53
2022/02/12 01:01:20;;;;;;;14.83;8.63;;;;;;;-2.19;100.00;102610.03;682260;29;1586;-51
2022/02/12 01:01:40;;;;;;;15.32;8.68;;;;;;;-2.21;100.00;102611.59;681930;29;1001;-50
2022/02/12 01:02:02;;;;;;;15.07;8.60;;;;;;;-2.25;100.00;102607.88;681128;28;1208;-52
2022/02/12 01:02:23;;;;;;;15.15;8.70;;;;;;;-2.20;100.00;102612.47;681533;29;860;-53
2022/02/12 01:02:43;;;;;;;14.70;8.57;;;;;;;-2.20;100.00;102605.69;681311;29;3237;-50
2022/02/12 01:03:07;;;;;;;15.45;8.65;;;;;;;-2.21;100.00;102611.59;679218;28;1844;-52
2022/02/12 01:03:27;;;;;;;15.45;9.18;;;;;;;-2.21;100.00;102606.47;679954;29;1399;-51
2022/02/12 01:03:48;;;;;;;15.80;9.18;;;;;;;-2.20;100.00;102604.78;679371;29;1453;-49
2022/02/12 01:04:08;;;;;;;14.32;8.73;;;;;;;-2.17;100.00;102608.50;680361;29;4434;-51
2022/02/12 01:04:29;;;;;;;15.30;8.53;;;;;;;-2.21;100.00;102605.59;680205;29;880;-52
2022/02/12 01:04:49;;;;;;;14.38;8.80;;;;;;;-2.28;100.00;102610.22;680271;29;868;-54
2022/02/12 01:05:11;;;;;;;14.70;8.73;;;;;;;-2.31;100.00;102606.50;680421;28;1101;-52
2022/02/12 01:05:32;;;;;;;15.55;8.25;;;;;;;-2.37;100.00;102606.03;681002;28;1006;-54
2022/02/12 01:05:52;;;;;;;15.40;8.60;;;;;;;-2.40;100.00;102607.56;681946;28;3644;-51
2022/02/12 01:06:13;;;;;;;14.17;8.70;;;;;;;-2.41;100.00;102610.91;681970;28;1092;-53
2022/02/12 01:06:34;;;;;;;14.60;9.10;;;;;;;-2.40;100.00;102602.44;681994;28;1166;-53
2022/02/12 01:06:54;;;;;;;14.85;8.93;;;;;;;-2.37;100.00;102608.59;682583;28;4620;-51
2022/02/12 01:07:14;;;;;;;15.10;9.00;;;;;;;-2.38;100.00;102609.34;683400;28;1082;-59
2022/02/12 01:07:35;;;;;;;15.93;9.20;;;;;;;-2.33;100.00;102608.06;684226;28;881;-50
2022/02/12 01:07:55;;;;;;;14.77;8.90;;;;;;;-2.28;100.00;102609.31;684387;28;880;-52
2022/02/12 01:08:15;;;;;;;16.45;8.93;;;;;;;-2.30;100.00;102605.72;683906;28;1080;-53
2022/02/12 01:08:36;;;;;;;14.63;8.57;;;;;;;-2.33;100.00;102602.94;683505;28;3417;-51
2022/02/12 01:08:56;;;;;;;13.35;8.60;;;;;;;-2.40;100.00;102601.56;684092;28;1088;-53
2022/02/12 01:09:17;;;;;;;15.07;9.40;;;;;;;-2.48;100.00;102606.09;683100;28;1230;-54
2022/02/12 01:09:37;;;;;;;15.27;9.18;;;;;;;-2.50;100.00;102607.63;684204;28;804;-50
2022/02/12 01:09:58;;;;;;;15.98;9.02;;;;;;;-2.47;100.00;102604.41;683651;28;4474;-52
2022/02/12 01:10:18;;;;;;;16.57;8.83;;;;;;;-2.44;100.00;102604.63;683979;28;852;-53
2022/02/12 01:10:39;;;;;;;16.53;8.70;;;;;;;-2.44;100.00;102605.56;684053;28;1347;-51
2022/02/12 01:10:59;;;;;;;12.87;8.40;;;;;;;-2.44;100.00;102605.56;684581;28;1223;-51
2022/02/12 01:11:19;;;;;;;14.65;8.88;;;;;;;-2.41;100.00;102602.31;683468;28;3084;-52
2022/02/12 01:11:40;;;;;;;15.68;8.55;;;;;;;-2.34;100.00;102604.63;683205;28;2590;-53
2022/02/12 01:12:03;;;;;;;15.23;8.40;;;;;;;-2.29;100.00;102603.28;683822;28;1247;-55
2022/02/12 01:12:24;;;;;;;15.93;8.57;;;;;;;-2.32;100.00;102612.41;684212;28;899;-52
2022/02/12 01:12:45;;;;;;;16.38;8.88;;;;;;;-2.38;100.00;102599.09;684170;28;1064;-53
2022/02/12 01:13:05;;;;;;;17.80;8.80;;;;;;;-2.38;100.00;102605.16;683483;28;4351;-52
2022/02/12 01:13:26;;;;;;;15.50;8.53;;;;;;;-2.32;100.00;102603.06;684292;28;1008;-53
2022/02/12 01:13:46;;;;;;;14.52;8.60;;;;;;;-2.31;100.00;102603.94;683543;28;904;-50
2022/02/12 01:14:06;;;;;;;16.53;9.20;;;;;;;-2.33;100.00;102606.38;683072;28;3059;-53
2022/02/12 01:14:27;;;;;;;14.98;8.75;;;;;;;-2.31;100.00;102601.38;684140;28;3750;-50
2022/02/12 01:14:47;;;;;;;15.87;8.77;;;;;;;-2.36;100.00;102600.13;680565;28;1239;-50
2022/02/12 01:15:08;;;;;;;15.30;9.07;;;;;;;-2.45;100.00;102603.75;679537;29;1142;-51
2022/02/12 01:15:29;;;;;;;14.93;8.90;;;;;;;-2.48;100.00;102600.97;679156;29;877;-53
2022/02/12 01:15:49;;;;;;;14.20;8.90;;;;;;;-2.48;100.00;102600.03;680628;29;4675;-54
2022/02/12 01:16:09;;;;;;;15.13;8.45;;;;;;;-2.50;100.00;102599.94;681319;29;1088;-52
2022/02/12 01:16:30;;;;;;;17.10;8.27;;;;;;;-2.53;100.00;102602.25;681652;28;770;-52
2022/02/12 01:16:50;;;;;;;13.05;8.43;;;;;;;-2.52;100.00;102604.06;682029;28;3168;-50
2022/02/12 01:17:11;;;;;;;13.60;8.33;;;;;;;-2.52;100.00;102600.56;682948;28;3778;-51
2022/02/12 01:17:31;;;;;;;12.77;8.20;;;;;;;-2.52;100.00;102606.63;684537;28;1105;-51
2022/02/12 01:17:52;;;;;;;14.40;8.70;;;;;;;-2.52;100.00;102593.81;685051;28;1500;-50
2022/02/12 01:18:12;;;;;;;13.95;8.43;;;;;;;-2.53;100.00;102585.97;684342;28;1292;-52
2022/02/12 01:18:33;;;;;;;13.52;8.25;;;;;;;-2.51;100.00;102594.69;684094;28;1139;-51
2022/02/12 01:18:54;;;;;;;13.32;8.30;;;;;;;-2.34;100.00;102598.56;683616;28;4448;-53
2022/02/12 01:19:14;;;;;;;16.60;8.80;;;;;;;-2.27;100.00;102593.16;684420;28;993;-51
2022/02/12 01:19:35;;;;;;;15.38;8.45;;;;;;;-2.25;100.00;102594.19;681127;28;880;-55
2022/02/12 01:19:56;;;;;;;14.90;8.43;;;;;;;-2.27;100.00;102594.06;681112;28;3310;-53
2022/02/12 01:20:17;;;;;;;15.32;8.65;;;;;;;-2.24;100.00;102594.31;680837;28;1173;-53
2022/02/12 01:20:39;;;;;;;14.02;8.25;;;;;;;-2.22;100.00;102596.97;681586;28;1383;-52
2022/02/12 01:21:00;;;;;;;13.35;8.20;;;;;;;-2.21;100.00;102596.22;682119;28;961;-51
2022/02/12 01:21:20;;;;;;;14.55;8.27;;;;;;;-2.22;100.00;102594.41;682507;28;876;-51
2022/02/12 01:21:42;;;;;;;15.05;8.55;;;;;;;-2.26;100.00;102597.50;683837;28;836;-52
2022/02/12 01:22:03;;;;;;;15.05;8.40;;;;;;;-2.26;100.00;102595.88;683368;28;4283;-52
2022/02/12 01:22:24;;;;;;;15.07;8.80;;;;;;;-2.19;100.00;102606.56;684313;28;975;-52
2022/02/12 01:22:47;;;;;;;17.17;8.68;;;;;;;-2.16;100.00;102602.59;683537;28;3502;-53
2022/02/12 01:23:08;;;;;;;15.27;8.30;;;;;;;-2.17;100.00;102598.25;683182;28;1371;-51
2022/02/12 01:23:28;;;;;;;14.57;8.40;;;;;;;-2.20;100.00;102603.13;683456;28;1425;-52
2022/02/12 01:23:49;;;;;;;13.65;8.40;;;;;;;-2.26;100.00;102598.44;683988;28;896;-53
2022/02/12 01:24:09;;;;;;;14.67;9.07;;;;;;;-2.29;100.00;102598.16;680378;28;1131;-51
2022/02/12 01:24:29;;;;;;;15.50;8.90;;;;;;;-2.33;100.00;102598.69;681131;28;1105;-52
2022/02/12 01:24:51;;;;;;;13.77;8.33;;;;;;;-2.36;100.00;102595.00;680089;28;4512;-52
2022/02/12 01:25:11;;;;;;;14.73;8.60;;;;;;;-2.39;100.00;102595.66;678648;29;1147;-53
2022/02/12 01:25:32;;;;;;;15.13;8.50;;;;;;;-2.41;100.00;102595.53;679688;29;3224;-51
2022/02/12 01:25:53;;;;;;;14.30;8.40;;;;;;;-2.42;100.00;102593.75;679235;28;1272;-51
2022/02/12 01:26:13;;;;;;;15.70;8.57;;;;;;;-2.43;100.00;102597.06;682135;28;1253;-51
2022/02/12 01:26:34;;;;;;;15.43;8.87;;;;;;;-2.43;100.00;102603.88;683465;28;1245;-55
2022/02/12 01:26:56;;;;;;;12.77;8.30;;;;;;;-2.45;100.00;102593.50;683437;28;1144;-51
2022/02/12 01:27:16;;;;;;;14.88;8.20;;;;;;;-2.49;100.00;102594.03;683610;28;1246;-51
2022/02/12 01:27:37;;;;;;;13.50;8.27;;;;;;;-2.45;100.00;102593.50;683769;28;1444;-51
2022/02/12 01:27:57;;;;;;;15.75;9.05;;;;;;;-2.43;100.00;102591.94;682594;28;4581;-53
2022/02/12 01:28:19;;;;;;;12.97;8.13;;;;;;;-2.32;100.00;102597.03;681915;28;3303;-53
2022/02/12 01:28:39;;;;;;;13.02;8.00;;;;;;;-2.24;100.00;102590.84;680968;28;3604;-55
2022/02/12 01:28:59;;;;;;;14.00;7.93;;;;;;;-2.26;100.00;102592.38;681753;28;1369;-50
2022/02/12 01:29:20;;;;;;;13.70;8.00;;;;;;;-2.28;100.00;102592.28;682014;28;1070;-52
2022/02/12 01:29:40;;;;;;;14.37;8.57;;;;;;;-2.20;100.00;102595.44;681998;28;1110;-51
2022/02/12 01:30:01;;;;;;;14.60;8.37;;;;;;;-2.15;100.00;102598.34;680418;28;1148;-52
2022/02/12 01:30:21;;;;;;;13.70;8.05;;;;;;;-2.19;100.00;102597.22;680703;28;1151;-52
2022/02/12 01:30:42;;;;;;;13.98;7.90;;;;;;;-2.22;100.00;102594.41;682000;28;1177;-53
2022/02/12 01:31:02;;;;;;;13.60;7.93;;;;;;;-2.20;100.00;102598.00;678338;29;4461;-51
2022/02/12 01:31:23;;;;;;;13.25;7.55;;;;;;;-2.13;100.00;102597.72;678571;29;3575;-53
2022/02/12 01:31:43;;;;;;;15.27;8.05;;;;;;;-2.10;100.00;102590.25;678783;29;1186;-54
2022/02/12 01:32:04;;;;;;;14.23;7.80;;;;;;;-2.10;100.00;102600.50;678806;28;1576;-52
2022/02/12 01:32:24;;;;;;;16.13;8.10;;;;;;;-2.11;100.00;102593.56;682121;28;1065;-51
2022/02/12 01:32:45;;;;;;;14.17;8.13;;;;;;;-2.13;100.00;102602.84;681971;28;1156;-51
2022/02/12 01:33:05;;;;;;;15.05;8.00;;;;;;;-2.12;100.00;102596.03;683700;28;1245;-51
2022/02/12 01:33:25;;;;;;;15.83;8.63;;;;;;;-2.18;100.00;102604.13;684252;28;1152;-50
2022/02/12 01:33:46;;;;;;;14.27;8.63;;;;;;;-2.21;100.00;102601.34;683866;28;1145;-50
2022/02/12 01:34:06;;;;;;;13.93;8.27;;;;;;;-2.27;100.00;102599.19;681786;28;4530;-52
2022/02/12 01:34:27;;;;;;;15.15;8.95;;;;;;;-2.31;100.00;102597.16;683491;28;1203;-51
2022/02/12 01:34:47;;;;;;;14.43;8.40;;;;;;;-2.33;100.00;102591.00;683256;28;1100;-50
2022/02/12 01:35:08;;;;;;;13.25;7.90;;;;;;;-2.31;100.00;102598.81;683736;28;999;-52
2022/02/12 01:35:28;;;;;;;14.00;7.83;;;;;;;-2.31;100.00;102596.25;683812;28;1089;-52
2022/02/12 01:35:49;;;;;;;13.30;7.77;;;;;;;-2.33;100.00;102596.13;683829;28;1926;-50
2022/02/12 01:36:09;;;;;;;13.88;8.25;;;;;;;-2.34;100.00;102590.88;683753;28;1276;-51
2022/02/12 01:36:30;;;;;;;14.70;8.00;;;;;;;-2.37;100.00;102596.66;683860;28;1089;-51
2022/02/12 01:36:51;;;;;;;15.27;8.15;;;;;;;-2.40;100.00;102594.75;681194;28;4390;-51